sensor_id;sensor_type;location;lat;lon;timestamp;pressure;altitude;pressure_sealevel;temperature;humidity
67517;BME280;68821;59.134;37.894;2023-06-10T00:02:09;100718.97;;;8.71;56.30
67517;BME280;68821;59.134;37.894;2023-06-10T00:04:35;100723.28;;;8.72;57.09
67517;BME280;68821;59.134;37.894;2023-06-10T00:07:05;100725.06;;;8.74;56.98
67517;BME280;68821;59.134;37.894;2023-06-10T00:09:35;100725.06;;;8.74;57.23
67517;BME280;68821;59.134;37.894;2023-06-10T00:12:04;100730.25;;;8.77;56.95
67517;BME280;68821;59.134;37.894;2023-06-10T00:14:30;100729.34;;;8.75;57.29
67517;BME280;68821;59.134;37.894;2023-06-10T00:16:56;100734.63;;;8.80;57.49
67517;BME280;68821;59.134;37.894;2023-06-10T00:19:23;100732.06;;;8.80;56.91
67517;BME280;68821;59.134;37.894;2023-06-10T00:21:52;100737.22;;;8.81;57.47
67517;BME280;68821;59.134;37.894;2023-06-10T00:24:18;100738.91;;;8.81;57.31
67517;BME280;68821;59.134;37.894;2023-06-10T00:26:44;100730.38;;;8.80;57.36
67517;BME280;68821;59.134;37.894;2023-06-10T00:29:10;100739.84;;;8.83;57.09
67517;BME280;68821;59.134;37.894;2023-06-10T00:31:37;100744.09;;;8.82;57.63
67517;BME280;68821;59.134;37.894;2023-06-10T00:34:04;100748.31;;;8.80;57.51
67517;BME280;68821;59.134;37.894;2023-06-10T00:36:30;100753.44;;;8.80;57.16
67517;BME280;68821;59.134;37.894;2023-06-10T00:38:56;100754.25;;;8.79;57.32
67517;BME280;68821;59.134;37.894;2023-06-10T00:41:23;100755.03;;;8.77;57.00
67517;BME280;68821;59.134;37.894;2023-06-10T00:43:49;100760.03;;;8.72;57.16
67517;BME280;68821;59.134;37.894;2023-06-10T00:46:15;100761.63;;;8.69;56.96
67517;BME280;68821;59.134;37.894;2023-06-10T00:48:43;100770.16;;;8.68;57.11
67517;BME280;68821;59.134;37.894;2023-06-10T00:51:09;100779.56;;;8.69;57.25
67517;BME280;68821;59.134;37.894;2023-06-10T00:53:40;100774.34;;;8.65;57.59
67517;BME280;68821;59.134;37.894;2023-06-10T00:56:07;100776.94;;;8.67;57.23
67517;BME280;68821;59.134;37.894;2023-06-10T00:58:34;100778.66;;;8.66;57.06
67517;BME280;68821;59.134;37.894;2023-06-10T01:01:00;100782.97;;;8.68;57.25
67517;BME280;68821;59.134;37.894;2023-06-10T01:03:27;100791.47;;;8.66;57.28
67517;BME280;68821;59.134;37.894;2023-06-10T01:05:58;100794.03;;;8.66;57.17
67517;BME280;68821;59.134;37.894;2023-06-10T01:08:40;100793.09;;;8.64;57.31
67517;BME280;68821;59.134;37.894;2023-06-10T01:11:10;100790.34;;;8.58;57.29
67517;BME280;68821;59.134;37.894;2023-06-10T01:13:41;100795.59;;;8.61;56.85
67517;BME280;68821;59.134;37.894;2023-06-10T01:16:07;100798.97;;;8.60;56.65
67517;BME280;68821;59.134;37.894;2023-06-10T01:18:34;100798.81;;;8.56;56.65
67517;BME280;68821;59.134;37.894;2023-06-10T01:21:00;100798.69;;;8.51;57.05
67517;BME280;68821;59.134;37.894;2023-06-10T01:23:27;100804.47;;;8.45;57.08
67517;BME280;68821;59.134;37.894;2023-06-10T01:25:58;100806.06;;;8.42;56.93
67517;BME280;68821;59.134;37.894;2023-06-10T01:31:35;100807.25;;;8.27;56.91
67517;BME280;68821;59.134;37.894;2023-06-10T01:34:00;100818.22;;;8.23;56.92
67517;BME280;68821;59.134;37.894;2023-06-10T01:36:28;100811.25;;;8.19;57.05
67517;BME280;68821;59.134;37.894;2023-06-10T01:38:55;100816.16;;;8.13;57.09
67517;BME280;68821;59.134;37.894;2023-06-10T01:41:22;100816.09;;;8.10;57.07
67517;BME280;68821;59.134;37.894;2023-06-10T01:43:48;100819.44;;;8.09;56.86
67517;BME280;68821;59.134;37.894;2023-06-10T01:46:15;100826.22;;;8.07;56.93
67517;BME280;68821;59.134;37.894;2023-06-10T01:48:45;100821.84;;;8.04;56.88
67517;BME280;68821;59.134;37.894;2023-06-10T01:51:11;100826.13;;;8.04;57.39
67517;BME280;68821;59.134;37.894;2023-06-10T01:53:37;100832.03;;;8.03;56.63
67517;BME280;68821;59.134;37.894;2023-06-10T01:56:03;100835.47;;;8.03;56.90
67517;BME280;68821;59.134;37.894;2023-06-10T01:58:29;100838.91;;;8.04;56.79
67517;BME280;68821;59.134;37.894;2023-06-10T02:00:55;100841.47;;;8.04;57.20
67517;BME280;68821;59.134;37.894;2023-06-10T02:03:21;100847.47;;;8.04;56.67
67517;BME280;68821;59.134;37.894;2023-06-10T02:05:47;100848.19;;;8.00;57.27
67517;BME280;68821;59.134;37.894;2023-06-10T02:08:13;100850.59;;;7.96;56.47
67517;BME280;68821;59.134;37.894;2023-06-10T02:10:39;100859.19;;;7.98;57.11
67517;BME280;68821;59.134;37.894;2023-06-10T02:13:06;100850.53;;;7.94;57.12
67517;BME280;68821;59.134;37.894;2023-06-10T02:15:32;100860.97;;;8.00;57.15
67517;BME280;68821;59.134;37.894;2023-06-10T02:17:59;100854.06;;;7.98;56.77
67517;BME280;68821;59.134;37.894;2023-06-10T02:20:25;100868.00;;;8.06;56.56
67517;BME280;68821;59.134;37.894;2023-06-10T02:22:51;100868.03;;;8.07;56.87
67517;BME280;68821;59.134;37.894;2023-06-10T02:25:17;100863.97;;;8.13;56.59
67517;BME280;68821;59.134;37.894;2023-06-10T02:27:43;100873.66;;;8.21;56.87
67517;BME280;68821;59.134;37.894;2023-06-10T02:30:09;100879.09;;;8.31;56.76
67517;BME280;68821;59.134;37.894;2023-06-10T02:32:36;100873.41;;;8.39;56.65
67517;BME280;68821;59.134;37.894;2023-06-10T02:35:02;100883.25;;;8.51;56.67
67517;BME280;68821;59.134;37.894;2023-06-10T02:37:28;100881.09;;;8.63;56.76
67517;BME280;68821;59.134;37.894;2023-06-10T02:39:54;100884.00;;;8.74;56.42
67517;BME280;68821;59.134;37.894;2023-06-10T02:42:20;100883.47;;;8.84;56.59
67517;BME280;68821;59.134;37.894;2023-06-10T02:44:46;100881.16;;;8.92;56.22
67517;BME280;68821;59.134;37.894;2023-06-10T02:47:12;100890.81;;;9.01;56.15
67517;BME280;68821;59.134;37.894;2023-06-10T02:49:38;100884.22;;;9.09;55.71
67517;BME280;68821;59.134;37.894;2023-06-10T02:52:04;100895.69;;;9.20;55.88
67517;BME280;68821;59.134;37.894;2023-06-10T02:54:30;100893.53;;;9.34;55.57
67517;BME280;68821;59.134;37.894;2023-06-10T02:56:56;100893.97;;;9.48;55.72
67517;BME280;68821;59.134;37.894;2023-06-10T02:59:22;100910.59;;;9.61;55.10
67517;BME280;68821;59.134;37.894;2023-06-10T03:01:48;100905.75;;;9.70;54.69
67517;BME280;68821;59.134;37.894;2023-06-10T03:04:14;100899.75;;;9.71;54.26
67517;BME280;68821;59.134;37.894;2023-06-10T03:06:40;100909.84;;;9.65;54.20
67517;BME280;68821;59.134;37.894;2023-06-10T03:09:11;100915.66;;;9.59;53.98
67517;BME280;68821;59.134;37.894;2023-06-10T03:11:37;100913.94;;;9.58;54.62
67517;BME280;68821;59.134;37.894;2023-06-10T03:14:03;100916.44;;;9.57;55.29
67517;BME280;68821;59.134;37.894;2023-06-10T03:16:29;100914.75;;;9.57;54.64
67517;BME280;68821;59.134;37.894;2023-06-10T03:18:55;100919.88;;;9.56;54.68
67517;BME280;68821;59.134;37.894;2023-06-10T03:21:21;100921.53;;;9.55;55.03
67517;BME280;68821;59.134;37.894;2023-06-10T03:23:48;100922.38;;;9.54;54.33
67517;BME280;68821;59.134;37.894;2023-06-10T03:26:14;100921.50;;;9.54;54.19
67517;BME280;68821;59.134;37.894;2023-06-10T03:28:41;100920.66;;;9.55;54.74
67517;BME280;68821;59.134;37.894;2023-06-10T03:31:07;100930.94;;;9.55;54.52
67517;BME280;68821;59.134;37.894;2023-06-10T03:33:33;100931.81;;;9.55;54.22
67517;BME280;68821;59.134;37.894;2023-06-10T03:35:59;100930.13;;;9.56;54.10
67517;BME280;68821;59.134;37.894;2023-06-10T03:38:25;100936.94;;;9.55;54.62
67517;BME280;68821;59.134;37.894;2023-06-10T03:40:51;100941.88;;;9.48;53.54
67517;BME280;68821;59.134;37.894;2023-06-10T03:43:17;100946.09;;;9.47;54.13
67517;BME280;68821;59.134;37.894;2023-06-10T03:45:43;100951.22;;;9.47;54.18
67517;BME280;68821;59.134;37.894;2023-06-10T03:48:09;100963.19;;;9.46;53.80
67517;BME280;68821;59.134;37.894;2023-06-10T03:50:36;100958.94;;;9.47;53.95
67517;BME280;68821;59.134;37.894;2023-06-10T03:53:02;100953.72;;;9.44;53.54
67517;BME280;68821;59.134;37.894;2023-06-10T03:55:28;100957.28;;;9.49;54.02
67517;BME280;68821;59.134;37.894;2023-06-10T03:57:54;100964.38;;;9.56;53.43
67517;BME280;68821;59.134;37.894;2023-06-10T04:00:23;100961.88;;;9.59;53.24
67517;BME280;68821;59.134;37.894;2023-06-10T04:02:50;100961.13;;;9.62;53.08
67517;BME280;68821;59.134;37.894;2023-06-10T04:05:19;100966.38;;;9.66;53.17
67517;BME280;68821;59.134;37.894;2023-06-10T04:07:48;100976.69;;;9.68;53.31
67517;BME280;68821;59.134;37.894;2023-06-10T04:10:15;100968.16;;;9.69;53.23
67517;BME280;68821;59.134;37.894;2023-06-10T04:12:41;100972.50;;;9.70;53.80
67517;BME280;68821;59.134;37.894;2023-06-10T04:15:07;100970.72;;;9.69;52.72
67517;BME280;68821;59.134;37.894;2023-06-10T04:17:34;100973.44;;;9.74;53.32
67517;BME280;68821;59.134;37.894;2023-06-10T04:20:00;100975.25;;;9.78;52.37
67517;BME280;68821;59.134;37.894;2023-06-10T04:22:28;100966.78;;;9.80;52.98
67517;BME280;68821;59.134;37.894;2023-06-10T04:24:54;100972.94;;;9.85;53.55
67517;BME280;68821;59.134;37.894;2023-06-10T04:27:19;100971.22;;;9.86;53.03
67517;BME280;68821;59.134;37.894;2023-06-10T04:29:46;100976.50;;;9.91;53.21
67517;BME280;68821;59.134;37.894;2023-06-10T04:32:12;100975.78;;;9.95;52.67
67517;BME280;68821;59.134;37.894;2023-06-10T04:34:38;100973.28;;;9.98;53.83
67517;BME280;68821;59.134;37.894;2023-06-10T04:37:06;100980.31;;;10.03;52.81
67517;BME280;68821;59.134;37.894;2023-06-10T04:39:32;100970.06;;;10.05;52.59
67517;BME280;68821;59.134;37.894;2023-06-10T04:41:59;100969.34;;;10.09;53.67
67517;BME280;68821;59.134;37.894;2023-06-10T04:44:25;100971.25;;;10.16;52.49
67517;BME280;68821;59.134;37.894;2023-06-10T04:46:52;100983.66;;;10.30;52.60
67517;BME280;68821;59.134;37.894;2023-06-10T04:49:18;100974.50;;;10.41;52.74
67517;BME280;68821;59.134;37.894;2023-06-10T04:51:44;100973.13;;;10.54;52.28
67517;BME280;68821;59.134;37.894;2023-06-10T04:54:10;100976.06;;;10.67;51.73
67517;BME280;68821;59.134;37.894;2023-06-10T04:56:36;100975.44;;;10.76;52.37
67517;BME280;68821;59.134;37.894;2023-06-10T04:59:02;100989.34;;;10.83;51.87
67517;BME280;68821;59.134;37.894;2023-06-10T05:01:28;100988.59;;;10.87;51.95
67517;BME280;68821;59.134;37.894;2023-06-10T05:03:54;100991.78;;;10.78;51.81
67517;BME280;68821;59.134;37.894;2023-06-10T05:06:20;100994.94;;;10.68;51.02
67517;BME280;68821;59.134;37.894;2023-06-10T05:08:46;100997.44;;;10.65;51.63
67517;BME280;68821;59.134;37.894;2023-06-10T05:11:13;100997.72;;;10.76;52.00
67517;BME280;68821;59.134;37.894;2023-06-10T05:13:39;100999.16;;;10.98;51.74
67517;BME280;68821;59.134;37.894;2023-06-10T05:16:06;100993.75;;;11.23;51.04
67517;BME280;68821;59.134;37.894;2023-06-10T05:18:33;100986.59;;;11.46;50.82
67517;BME280;68821;59.134;37.894;2023-06-10T05:20:59;100996.41;;;11.63;50.30
67517;BME280;68821;59.134;37.894;2023-06-10T05:23:25;100989.66;;;11.68;50.47
67517;BME280;68821;59.134;37.894;2023-06-10T05:25:51;100995.84;;;11.76;50.43
67517;BME280;68821;59.134;37.894;2023-06-10T05:28:17;100984.13;;;11.89;50.34
67517;BME280;68821;59.134;37.894;2023-06-10T05:30:44;100986.84;;;11.97;50.15
67517;BME280;68821;59.134;37.894;2023-06-10T05:33:10;100992.66;;;11.88;50.09
67517;BME280;68821;59.134;37.894;2023-06-10T05:35:35;100988.16;;;11.78;50.10
67517;BME280;68821;59.134;37.894;2023-06-10T05:38:02;100993.31;;;11.78;49.87
67517;BME280;68821;59.134;37.894;2023-06-10T05:40:28;100986.44;;;11.78;50.24
67517;BME280;68821;59.134;37.894;2023-06-10T05:42:54;100994.06;;;11.74;49.70
67517;BME280;68821;59.134;37.894;2023-06-10T05:45:20;100999.94;;;11.68;49.89
67517;BME280;68821;59.134;37.894;2023-06-10T05:47:46;101006.69;;;11.61;49.54
67517;BME280;68821;59.134;37.894;2023-06-10T05:50:12;100998.84;;;11.57;49.62
67517;BME280;68821;59.134;37.894;2023-06-10T05:52:38;100992.13;;;11.63;49.53
67517;BME280;68821;59.134;37.894;2023-06-10T05:55:08;100995.78;;;11.73;49.75
67517;BME280;68821;59.134;37.894;2023-06-10T05:57:34;101002.06;;;11.86;49.14
67517;BME280;68821;59.134;37.894;2023-06-10T06:00:00;101002.41;;;12.01;49.47
67517;BME280;68821;59.134;37.894;2023-06-10T06:02:26;101002.66;;;12.14;49.29
67517;BME280;68821;59.134;37.894;2023-06-10T06:04:52;101006.19;;;12.17;48.74
67517;BME280;68821;59.134;37.894;2023-06-10T06:07:18;101014.50;;;12.04;48.33
67517;BME280;68821;59.134;37.894;2023-06-10T06:09:47;101003.03;;;11.90;48.63
67517;BME280;68821;59.134;37.894;2023-06-10T06:12:13;101009.66;;;11.80;48.88
67517;BME280;68821;59.134;37.894;2023-06-10T06:14:41;101008.84;;;11.82;48.90
67517;BME280;68821;59.134;37.894;2023-06-10T06:17:07;101003.31;;;12.03;48.70
67517;BME280;68821;59.134;37.894;2023-06-10T06:19:33;100998.72;;;12.31;48.47
67517;BME280;68821;59.134;37.894;2023-06-10T06:22:00;101011.16;;;12.52;48.08
67517;BME280;68821;59.134;37.894;2023-06-10T06:24:26;101002.00;;;12.68;47.97
67517;BME280;68821;59.134;37.894;2023-06-10T06:26:52;101010.72;;;12.75;47.59
67517;BME280;68821;59.134;37.894;2023-06-10T06:29:18;101013.91;;;12.60;46.92
67517;BME280;68821;59.134;37.894;2023-06-10T06:31:44;101015.03;;;12.30;47.14
67517;BME280;68821;59.134;37.894;2023-06-10T06:34:10;101016.25;;;12.05;47.46
67517;BME280;68821;59.134;37.894;2023-06-10T06:36:36;101012.47;;;11.89;47.63
67517;BME280;68821;59.134;37.894;2023-06-10T06:39:02;101008.75;;;11.78;47.70
67517;BME280;68821;59.134;37.894;2023-06-10T06:41:30;101018.28;;;11.82;47.77
67517;BME280;68821;59.134;37.894;2023-06-10T06:43:56;101018.50;;;11.91;47.54
67517;BME280;68821;59.134;37.894;2023-06-10T06:46:22;101010.31;;;12.09;47.60
67517;BME280;68821;59.134;37.894;2023-06-10T06:48:51;101010.78;;;12.32;47.18
67517;BME280;68821;59.134;37.894;2023-06-10T06:51:17;101012.94;;;12.55;46.93
67517;BME280;68821;59.134;37.894;2023-06-10T06:53:43;101020.22;;;12.77;46.85
67517;BME280;68821;59.134;37.894;2023-06-10T06:56:14;101021.22;;;12.85;46.44
67517;BME280;68821;59.134;37.894;2023-06-10T06:58:41;101032.25;;;12.77;46.33
67517;BME280;68821;59.134;37.894;2023-06-10T07:01:07;101028.41;;;12.55;46.53
67517;BME280;68821;59.134;37.894;2023-06-10T07:03:33;101032.28;;;12.34;46.39
67517;BME280;68821;59.134;37.894;2023-06-10T07:05:59;101030.13;;;12.12;46.75
67517;BME280;68821;59.134;37.894;2023-06-10T07:08:25;101033.28;;;11.98;46.87
67517;BME280;68821;59.134;37.894;2023-06-10T07:10:57;101043.50;;;11.94;46.82
67517;BME280;68821;59.134;37.894;2023-06-10T07:13:24;101031.91;;;12.14;46.64
67517;BME280;68821;59.134;37.894;2023-06-10T07:15:50;101032.69;;;12.54;46.33
67517;BME280;68821;59.134;37.894;2023-06-10T07:18:16;101022.31;;;12.97;45.92
67517;BME280;68821;59.134;37.894;2023-06-10T07:20:43;101028.81;;;13.25;45.58
67517;BME280;68821;59.134;37.894;2023-06-10T07:23:09;101027.28;;;13.36;45.64
67517;BME280;68821;59.134;37.894;2023-06-10T07:25:35;101038.47;;;13.35;44.81
67517;BME280;68821;59.134;37.894;2023-06-10T07:28:01;101037.44;;;13.27;45.01
67517;BME280;68821;59.134;37.894;2023-06-10T07:30:28;101036.53;;;13.23;44.67
67517;BME280;68821;59.134;37.894;2023-06-10T07:32:54;101042.00;;;13.40;45.20
67517;BME280;68821;59.134;37.894;2023-06-10T07:35:21;101038.16;;;13.72;44.85
67517;BME280;68821;59.134;37.894;2023-06-10T07:37:47;101045.53;;;14.06;44.49
67517;BME280;68821;59.134;37.894;2023-06-10T07:40:13;101031.31;;;14.41;43.72
67517;BME280;68821;59.134;37.894;2023-06-10T07:42:39;101032.50;;;14.67;43.55
67517;BME280;68821;59.134;37.894;2023-06-10T07:45:06;101047.22;;;14.72;43.31
67517;BME280;68821;59.134;37.894;2023-06-10T07:47:33;101047.94;;;14.58;43.30
67517;BME280;68821;59.134;37.894;2023-06-10T07:50:00;101042.44;;;14.34;43.11
67517;BME280;68821;59.134;37.894;2023-06-10T07:52:26;101048.13;;;14.08;43.77
67517;BME280;68821;59.134;37.894;2023-06-10T07:54:54;101056.50;;;13.88;44.04
67517;BME280;68821;59.134;37.894;2023-06-10T07:57:20;101044.16;;;13.69;43.91
67517;BME280;68821;59.134;37.894;2023-06-10T07:59:46;101046.84;;;13.77;44.40
67517;BME280;68821;59.134;37.894;2023-06-10T08:02:12;101046.44;;;14.10;44.28
67517;BME280;68821;59.134;37.894;2023-06-10T08:04:38;101048.72;;;14.54;43.38
67517;BME280;68821;59.134;37.894;2023-06-10T08:07:04;101039.56;;;14.81;42.63
67517;BME280;68821;59.134;37.894;2023-06-10T08:09:30;101056.78;;;14.80;42.80
67517;BME280;68821;59.134;37.894;2023-06-10T08:11:56;101056.59;;;14.60;42.73
67517;BME280;68821;59.134;37.894;2023-06-10T08:14:22;101063.19;;;14.38;42.61
67517;BME280;68821;59.134;37.894;2023-06-10T08:16:48;101061.28;;;14.23;42.88
67517;BME280;68821;59.134;37.894;2023-06-10T08:19:14;101062.91;;;14.15;42.75
67517;BME280;68821;59.134;37.894;2023-06-10T08:21:40;101065.50;;;14.17;42.91
67517;BME280;68821;59.134;37.894;2023-06-10T08:24:07;101067.47;;;14.36;42.55
67517;BME280;68821;59.134;37.894;2023-06-10T08:26:32;101053.94;;;14.57;42.19
67517;BME280;68821;59.134;37.894;2023-06-10T08:28:58;101062.94;;;14.90;41.95
67517;BME280;68821;59.134;37.894;2023-06-10T08:31:24;101064.91;;;15.16;41.74
67517;BME280;68821;59.134;37.894;2023-06-10T08:33:50;101071.13;;;15.36;41.59
67517;BME280;68821;59.134;37.894;2023-06-10T08:36:16;101074.66;;;15.46;40.95
67517;BME280;68821;59.134;37.894;2023-06-10T08:38:42;101078.06;;;15.39;41.08
67517;BME280;68821;59.134;37.894;2023-06-10T08:41:12;101078.81;;;15.27;41.33
67517;BME280;68821;59.134;37.894;2023-06-10T08:43:57;101092.66;;;15.29;41.67
67517;BME280;68821;59.134;37.894;2023-06-10T08:46:25;101084.91;;;15.31;41.45
67517;BME280;68821;59.134;37.894;2023-06-10T08:48:55;101091.00;;;15.37;41.66
67517;BME280;68821;59.134;37.894;2023-06-10T08:51:24;101083.41;;;15.57;41.43
67517;BME280;68821;59.134;37.894;2023-06-10T08:53:57;101086.19;;;15.80;41.01
67517;BME280;68821;59.134;37.894;2023-06-10T08:56:27;101075.13;;;16.06;40.78
67517;BME280;68821;59.134;37.894;2023-06-10T08:58:54;101081.22;;;16.14;40.24
67517;BME280;68821;59.134;37.894;2023-06-10T09:01:24;101091.53;;;16.09;40.20
67517;BME280;68821;59.134;37.894;2023-06-10T09:03:50;101082.78;;;15.91;40.34
67517;BME280;68821;59.134;37.894;2023-06-10T09:06:17;101087.97;;;15.87;40.39
67517;BME280;68821;59.134;37.894;2023-06-10T09:08:44;101087.22;;;16.04;40.27
67517;BME280;68821;59.134;37.894;2023-06-10T09:11:10;101095.97;;;16.27;40.31
67517;BME280;68821;59.134;37.894;2023-06-10T09:13:36;101088.19;;;16.32;39.93
67517;BME280;68821;59.134;37.894;2023-06-10T09:16:02;101096.88;;;16.33;39.75
67517;BME280;68821;59.134;37.894;2023-06-10T09:18:28;101092.56;;;16.39;39.59
67517;BME280;68821;59.134;37.894;2023-06-10T09:20:55;101088.28;;;16.52;40.03
67517;BME280;68821;59.134;37.894;2023-06-10T09:23:21;101084.84;;;16.61;39.51
67517;BME280;68821;59.134;37.894;2023-06-10T09:25:56;101083.13;;;16.64;39.39
67517;BME280;68821;59.134;37.894;2023-06-10T09:28:23;101087.56;;;16.82;39.14
67517;BME280;68821;59.134;37.894;2023-06-10T09:30:49;101088.47;;;17.01;39.19
67517;BME280;68821;59.134;37.894;2023-06-10T09:33:16;101089.34;;;17.16;39.09
67517;BME280;68821;59.134;37.894;2023-06-10T09:35:49;101087.63;;;17.19;38.94
67517;BME280;68821;59.134;37.894;2023-06-10T09:38:20;101090.22;;;17.24;39.25
67517;BME280;68821;59.134;37.894;2023-06-10T09:40:51;101111.00;;;17.12;39.29
67517;BME280;68821;59.134;37.894;2023-06-10T09:43:18;101136.84;;;16.75;39.19
67517;BME280;68821;59.134;37.894;2023-06-10T09:45:44;101133.09;;;16.14;40.14
67517;BME280;68821;59.134;37.894;2023-06-10T09:48:10;101137.84;;;15.62;41.04
67517;BME280;68821;59.134;37.894;2023-06-10T09:50:45;101133.94;;;15.12;42.39
67517;BME280;68821;59.134;37.894;2023-06-10T09:53:12;101117.06;;;14.68;43.18
67517;BME280;68821;59.134;37.894;2023-06-10T09:55:39;101122.59;;;14.32;43.81
67517;BME280;68821;59.134;37.894;2023-06-10T09:58:05;101124.09;;;14.16;44.39
67517;BME280;68821;59.134;37.894;2023-06-10T10:00:34;101114.78;;;14.29;46.32
67517;BME280;68821;59.134;37.894;2023-06-10T10:03:00;101108.38;;;14.63;45.44
67517;BME280;68821;59.134;37.894;2023-06-10T10:05:27;101114.09;;;15.14;45.13
67517;BME280;68821;59.134;37.894;2023-06-10T10:07:53;101103.44;;;15.75;43.59
67517;BME280;68821;59.134;37.894;2023-06-10T10:10:22;101103.81;;;16.37;42.43
67517;BME280;68821;59.134;37.894;2023-06-10T10:12:51;101109.94;;;16.59;41.33
67517;BME280;68821;59.134;37.894;2023-06-10T10:15:19;101112.47;;;16.46;41.16
67517;BME280;68821;59.134;37.894;2023-06-10T10:17:58;101118.41;;;16.19;41.53
67517;BME280;68821;59.134;37.894;2023-06-10T10:20:29;101102.78;;;16.04;41.39
67517;BME280;68821;59.134;37.894;2023-06-10T10:22:57;101117.56;;;16.23;41.61
67517;BME280;68821;59.134;37.894;2023-06-10T10:25:27;101107.41;;;16.69;40.70
67517;BME280;68821;59.134;37.894;2023-06-10T10:27:57;101109.25;;;17.12;39.81
67517;BME280;68821;59.134;37.894;2023-06-10T10:30:25;101126.63;;;17.25;39.09
67517;BME280;68821;59.134;37.894;2023-06-10T10:33:04;101124.88;;;17.21;38.88
67517;BME280;68821;59.134;37.894;2023-06-10T10:35:33;101128.34;;;17.17;38.54
67517;BME280;68821;59.134;37.894;2023-06-10T10:37:59;101136.03;;;16.89;39.15
67517;BME280;68821;59.134;37.894;2023-06-10T10:40:27;101141.97;;;16.62;40.00
67517;BME280;68821;59.134;37.894;2023-06-10T10:42:56;101127.97;;;16.28;40.62
67517;BME280;68821;59.134;37.894;2023-06-10T10:45:22;101136.44;;;15.99;40.72
67517;BME280;68821;59.134;37.894;2023-06-10T10:47:53;101125.13;;;15.86;40.72
67517;BME280;68821;59.134;37.894;2023-06-10T10:50:21;101127.81;;;16.00;40.76
67517;BME280;68821;59.134;37.894;2023-06-10T10:52:55;101110.72;;;16.33;40.08
67517;BME280;68821;59.134;37.894;2023-06-10T10:55:26;101108.28;;;16.75;39.70
67517;BME280;68821;59.134;37.894;2023-06-10T10:57:59;101098.03;;;17.25;39.75
67517;BME280;68821;59.134;37.894;2023-06-10T11:00:29;101090.16;;;18.15;38.27
67517;BME280;68821;59.134;37.894;2023-06-10T11:05:35;101094.50;;;19.67;35.70
67517;BME280;68821;59.134;37.894;2023-06-10T11:08:03;101109.53;;;19.39;35.46
67517;BME280;68821;59.134;37.894;2023-06-10T11:10:37;101102.06;;;18.74;35.58
67517;BME280;68821;59.134;37.894;2023-06-10T11:15:39;101098.59;;;18.81;35.24
67517;BME280;68821;59.134;37.894;2023-06-10T11:18:26;101105.63;;;18.59;35.42
67517;BME280;68821;59.134;37.894;2023-06-10T11:21:01;101109.13;;;18.50;35.49
67517;BME280;68821;59.134;37.894;2023-06-10T11:26:15;101095.59;;;20.29;35.28
67517;BME280;68821;59.134;37.894;2023-06-10T11:29:01;101102.66;;;23.60;32.72
67517;BME280;68821;59.134;37.894;2023-06-10T11:31:32;101097.81;;;26.79;30.77
67517;BME280;68821;59.134;37.894;2023-06-10T11:34:01;101096.53;;;27.54;28.14
67517;BME280;68821;59.134;37.894;2023-06-10T11:36:29;101093.69;;;26.24;27.98
67517;BME280;68821;59.134;37.894;2023-06-10T11:39:02;101106.72;;;24.38;28.67
67517;BME280;68821;59.134;37.894;2023-06-10T11:41:32;101119.34;;;22.42;30.66
67517;BME280;68821;59.134;37.894;2023-06-10T11:44:12;101123.69;;;20.85;31.30
67517;BME280;68821;59.134;37.894;2023-06-10T11:46:39;101135.38;;;19.71;32.52
67517;BME280;68821;59.134;37.894;2023-06-10T11:49:08;101131.56;;;18.90;33.45
67517;BME280;68821;59.134;37.894;2023-06-10T11:51:36;101136.06;;;18.39;33.92
67517;BME280;68821;59.134;37.894;2023-06-10T11:54:03;101141.34;;;18.08;34.61
67517;BME280;68821;59.134;37.894;2023-06-10T11:56:30;101131.84;;;17.70;34.96
67517;BME280;68821;59.134;37.894;2023-06-10T11:59:06;101139.59;;;17.35;35.29
67517;BME280;68821;59.134;37.894;2023-06-10T12:01:40;101120.56;;;17.34;35.58
67517;BME280;68821;59.134;37.894;2023-06-10T12:04:09;101131.81;;;17.73;35.18
67517;BME280;68821;59.134;37.894;2023-06-10T12:09:24;101106.59;;;20.56;33.76
67517;BME280;68821;59.134;37.894;2023-06-10T12:11:54;101103.72;;;23.53;31.56
67517;BME280;68821;59.134;37.894;2023-06-10T12:14:53;101108.97;;;26.15;29.27
67517;BME280;68821;59.134;37.894;2023-06-10T12:19:59;101110.53;;;29.66;25.46
67517;BME280;68821;59.134;37.894;2023-06-10T12:22:25;101108.28;;;28.47;25.48
67517;BME280;68821;59.134;37.894;2023-06-10T12:27:27;101133.38;;;24.86;28.60
67517;BME280;68821;59.134;37.894;2023-06-10T12:29:56;101113.97;;;24.90;27.81
67517;BME280;68821;59.134;37.894;2023-06-10T12:32:43;101123.88;;;24.20;27.89
67517;BME280;68821;59.134;37.894;2023-06-10T12:35:12;101144.78;;;23.20;28.19
67517;BME280;68821;59.134;37.894;2023-06-10T12:37:39;101133.50;;;23.52;28.62
67517;BME280;68821;59.134;37.894;2023-06-10T12:40:06;101142.34;;;23.12;28.60
67517;BME280;68821;59.134;37.894;2023-06-10T12:42:37;101140.09;;;22.94;28.42
67517;BME280;68821;59.134;37.894;2023-06-10T12:45:05;101130.81;;;22.35;29.02
67517;BME280;68821;59.134;37.894;2023-06-10T12:47:34;101134.19;;;21.42;29.51
67517;BME280;68821;59.134;37.894;2023-06-10T12:50:04;101138.00;;;20.53;30.00
67517;BME280;68821;59.134;37.894;2023-06-10T12:52:31;101139.63;;;19.80;30.88
67517;BME280;68821;59.134;37.894;2023-06-10T12:54:58;101134.59;;;19.55;31.31
67517;BME280;68821;59.134;37.894;2023-06-10T12:57:24;101136.69;;;20.15;31.02
67517;BME280;68821;59.134;37.894;2023-06-10T12:59:51;101134.28;;;20.74;30.28
67517;BME280;68821;59.134;37.894;2023-06-10T13:02:22;101131.16;;;21.13;30.05
67517;BME280;68821;59.134;37.894;2023-06-10T13:04:50;101120.66;;;22.18;29.17